sensor_id;sensor_type;location;lat;lon;timestamp;temperature;humidity
19261;DHT22;9764;48.114;11.670;2023-03-23T00:01:01;21.80;85.60
19261;DHT22;9764;48.114;11.670;2023-03-23T00:03:28;21.70;85.50
19261;DHT22;9764;48.114;11.670;2023-03-23T00:05:58;21.70;85.60
19261;DHT22;9764;48.114;11.670;2023-03-23T00:08:32;21.70;85.60
19261;DHT22;9764;48.114;11.670;2023-03-23T00:11:00;21.70;85.60
19261;DHT22;9764;48.114;11.670;2023-03-23T00:13:28;21.70;85.60
19261;DHT22;9764;48.114;11.670;2023-03-23T00:15:56;21.70;85.60
19261;DHT22;9764;48.114;11.670;2023-03-23T00:18:24;21.70;85.60
19261;DHT22;9764;48.114;11.670;2023-03-23T00:20:53;21.70;86.40
19261;DHT22;9764;48.114;11.670;2023-03-23T00:23:22;21.70;85.50
19261;DHT22;9764;48.114;11.670;2023-03-23T00:25:52;21.70;85.60
19261;DHT22;9764;48.114;11.670;2023-03-23T00:28:23;21.70;85.60
19261;DHT22;9764;48.114;11.670;2023-03-23T00:30:56;21.70;85.60
19261;DHT22;9764;48.114;11.670;2023-03-23T00:33:24;21.70;85.60
19261;DHT22;9764;48.114;11.670;2023-03-23T00:35:53;21.70;85.60
19261;DHT22;9764;48.114;11.670;2023-03-23T00:38:22;21.70;85.50
19261;DHT22;9764;48.114;11.670;2023-03-23T00:40:51;21.70;85.60
19261;DHT22;9764;48.114;11.670;2023-03-23T00:43:19;21.70;85.60
19261;DHT22;9764;48.114;11.670;2023-03-23T00:45:46;21.70;85.60
19261;DHT22;9764;48.114;11.670;2023-03-23T00:48:18;21.70;85.60
19261;DHT22;9764;48.114;11.670;2023-03-23T00:50:46;21.70;85.60
19261;DHT22;9764;48.114;11.670;2023-03-23T00:53:14;21.70;85.60
19261;DHT22;9764;48.114;11.670;2023-03-23T00:55:42;21.70;85.60
19261;DHT22;9764;48.114;11.670;2023-03-23T00:58:11;21.70;85.60
19261;DHT22;9764;48.114;11.670;2023-03-23T01:00:41;21.70;85.60
19261;DHT22;9764;48.114;11.670;2023-03-23T01:03:09;21.70;85.60
19261;DHT22;9764;48.114;11.670;2023-03-23T01:05:38;21.70;85.60
19261;DHT22;9764;48.114;11.670;2023-03-23T01:08:07;21.70;85.60
19261;DHT22;9764;48.114;11.670;2023-03-23T01:10:36;21.60;85.50
19261;DHT22;9764;48.114;11.670;2023-03-23T01:13:05;21.70;85.60
19261;DHT22;9764;48.114;11.670;2023-03-23T01:15:34;21.70;85.60
19261;DHT22;9764;48.114;11.670;2023-03-23T01:18:02;21.70;85.60
19261;DHT22;9764;48.114;11.670;2023-03-23T01:20:29;21.70;85.60
19261;DHT22;9764;48.114;11.670;2023-03-23T01:22:57;21.60;85.60
19261;DHT22;9764;48.114;11.670;2023-03-23T01:25:27;21.60;85.60
19261;DHT22;9764;48.114;11.670;2023-03-23T01:27:55;21.60;85.60
19261;DHT22;9764;48.114;11.670;2023-03-23T01:30:24;21.60;85.50
19261;DHT22;9764;48.114;11.670;2023-03-23T01:32:54;21.60;86.40
19261;DHT22;9764;48.114;11.670;2023-03-23T01:35:22;21.60;85.50
19261;DHT22;9764;48.114;11.670;2023-03-23T01:37:51;21.60;85.50
19261;DHT22;9764;48.114;11.670;2023-03-23T01:40:19;21.60;85.50
19261;DHT22;9764;48.114;11.670;2023-03-23T01:42:46;21.60;85.60
19261;DHT22;9764;48.114;11.670;2023-03-23T01:45:25;21.60;85.60
19261;DHT22;9764;48.114;11.670;2023-03-23T01:48:07;21.60;85.60
19261;DHT22;9764;48.114;11.670;2023-03-23T01:50:41;21.60;85.60
19261;DHT22;9764;48.114;11.670;2023-03-23T01:53:11;21.60;85.60
19261;DHT22;9764;48.114;11.670;2023-03-23T01:55:41;21.60;86.40
19261;DHT22;9764;48.114;11.670;2023-03-23T01:58:09;21.60;85.60
19261;DHT22;9764;48.114;11.670;2023-03-23T02:00:38;21.60;85.60
19261;DHT22;9764;48.114;11.670;2023-03-23T02:03:12;21.60;85.60
19261;DHT22;9764;48.114;11.670;2023-03-23T02:05:42;21.60;85.60
19261;DHT22;9764;48.114;11.670;2023-03-23T02:08:28;21.60;85.60
19261;DHT22;9764;48.114;11.670;2023-03-23T02:10:56;21.60;85.60
19261;DHT22;9764;48.114;11.670;2023-03-23T02:13:24;21.60;85.60
19261;DHT22;9764;48.114;11.670;2023-03-23T02:16:00;21.60;85.60
19261;DHT22;9764;48.114;11.670;2023-03-23T02:18:39;21.60;85.60
19261;DHT22;9764;48.114;11.670;2023-03-23T02:30:37;21.60;85.60
19261;DHT22;9764;48.114;11.670;2023-03-23T02:33:35;21.60;85.60
19261;DHT22;9764;48.114;11.670;2023-03-23T02:36:09;21.60;85.60
19261;DHT22;9764;48.114;11.670;2023-03-23T02:38:43;21.60;85.50
19261;DHT22;9764;48.114;11.670;2023-03-23T02:41:19;21.60;86.40
19261;DHT22;9764;48.114;11.670;2023-03-23T02:43:49;21.60;85.60
19261;DHT22;9764;48.114;11.670;2023-03-23T02:46:17;21.60;85.60
19261;DHT22;9764;48.114;11.670;2023-03-23T02:48:49;21.60;85.60
19261;DHT22;9764;48.114;11.670;2023-03-23T02:51:19;21.60;85.60
19261;DHT22;9764;48.114;11.670;2023-03-23T02:53:49;21.60;85.60
19261;DHT22;9764;48.114;11.670;2023-03-23T02:56:19;21.60;85.60
19261;DHT22;9764;48.114;11.670;2023-03-23T02:58:48;21.60;85.60
19261;DHT22;9764;48.114;11.670;2023-03-23T03:01:47;21.50;85.50
19261;DHT22;9764;48.114;11.670;2023-03-23T03:04:19;21.60;85.60
19261;DHT22;9764;48.114;11.670;2023-03-23T03:09:44;21.60;85.60
19261;DHT22;9764;48.114;11.670;2023-03-23T03:12:22;21.50;85.50
19261;DHT22;9764;48.114;11.670;2023-03-23T03:14:58;21.60;85.60
19261;DHT22;9764;48.114;11.670;2023-03-23T03:17:31;21.50;85.50
19261;DHT22;9764;48.114;11.670;2023-03-23T03:20:04;21.60;85.60
19261;DHT22;9764;48.114;11.670;2023-03-23T03:22:37;21.50;85.50
19261;DHT22;9764;48.114;11.670;2023-03-23T03:25:09;21.60;85.60
19261;DHT22;9764;48.114;11.670;2023-03-23T03:27:41;21.50;85.60
19261;DHT22;9764;48.114;11.670;2023-03-23T03:30:19;21.50;85.50
19261;DHT22;9764;48.114;11.670;2023-03-23T03:32:49;21.50;85.50
19261;DHT22;9764;48.114;11.670;2023-03-23T03:35:21;21.50;85.50
19261;DHT22;9764;48.114;11.670;2023-03-23T03:37:50;21.50;85.60
19261;DHT22;9764;48.114;11.670;2023-03-23T03:40:20;21.50;85.60
19261;DHT22;9764;48.114;11.670;2023-03-23T03:42:49;21.50;85.60
19261;DHT22;9764;48.114;11.670;2023-03-23T03:45:18;21.50;85.60
19261;DHT22;9764;48.114;11.670;2023-03-23T03:47:46;21.50;85.60
19261;DHT22;9764;48.114;11.670;2023-03-23T03:50:15;21.50;85.60
19261;DHT22;9764;48.114;11.670;2023-03-23T03:52:44;21.50;85.60
19261;DHT22;9764;48.114;11.670;2023-03-23T03:55:11;21.50;85.60
19261;DHT22;9764;48.114;11.670;2023-03-23T03:57:41;21.50;85.60
19261;DHT22;9764;48.114;11.670;2023-03-23T04:00:40;21.50;85.60
19261;DHT22;9764;48.114;11.670;2023-03-23T04:03:08;21.50;85.60
19261;DHT22;9764;48.114;11.670;2023-03-23T04:05:52;21.50;85.60
19261;DHT22;9764;48.114;11.670;2023-03-23T04:08:23;21.50;85.60
19261;DHT22;9764;48.114;11.670;2023-03-23T04:10:53;21.50;85.60
19261;DHT22;9764;48.114;11.670;2023-03-23T04:13:21;21.50;85.60
19261;DHT22;9764;48.114;11.670;2023-03-23T04:15:49;21.50;85.60
19261;DHT22;9764;48.114;11.670;2023-03-23T04:18:17;21.50;85.60
19261;DHT22;9764;48.114;11.670;2023-03-23T04:20:47;21.50;85.60
19261;DHT22;9764;48.114;11.670;2023-03-23T04:23:19;21.50;85.60
19261;DHT22;9764;48.114;11.670;2023-03-23T04:25:50;21.50;85.60
19261;DHT22;9764;48.114;11.670;2023-03-23T04:28:19;21.50;85.50
19261;DHT22;9764;48.114;11.670;2023-03-23T04:31:22;21.50;85.60
19261;DHT22;9764;48.114;11.670;2023-03-23T04:33:53;21.50;85.60
19261;DHT22;9764;48.114;11.670;2023-03-23T04:36:23;21.50;85.50
19261;DHT22;9764;48.114;11.670;2023-03-23T04:38:57;21.50;85.60
19261;DHT22;9764;48.114;11.670;2023-03-23T04:41:27;21.50;85.50
19261;DHT22;9764;48.114;11.670;2023-03-23T04:44:09;21.50;85.50
19261;DHT22;9764;48.114;11.670;2023-03-23T04:46:44;21.50;85.50
19261;DHT22;9764;48.114;11.670;2023-03-23T04:49:16;21.50;85.50
19261;DHT22;9764;48.114;11.670;2023-03-23T04:51:49;21.50;85.60
19261;DHT22;9764;48.114;11.670;2023-03-23T04:54:42;21.50;85.60
19261;DHT22;9764;48.114;11.670;2023-03-23T04:57:12;21.50;85.60
19261;DHT22;9764;48.114;11.670;2023-03-23T04:59:47;21.50;85.60
19261;DHT22;9764;48.114;11.670;2023-03-23T05:02:19;21.50;85.60
19261;DHT22;9764;48.114;11.670;2023-03-23T05:04:48;21.50;85.60
19261;DHT22;9764;48.114;11.670;2023-03-23T05:07:23;21.50;85.60
19261;DHT22;9764;48.114;11.670;2023-03-23T05:09:53;21.50;85.50
19261;DHT22;9764;48.114;11.670;2023-03-23T05:12:25;21.50;86.40
19261;DHT22;9764;48.114;11.670;2023-03-23T05:14:57;21.50;85.60
19261;DHT22;9764;48.114;11.670;2023-03-23T05:17:26;21.50;85.60
19261;DHT22;9764;48.114;11.670;2023-03-23T05:19:58;21.50;85.60
19261;DHT22;9764;48.114;11.670;2023-03-23T05:22:43;21.50;86.40
19261;DHT22;9764;48.114;11.670;2023-03-23T05:25:13;21.50;85.60
19261;DHT22;9764;48.114;11.670;2023-03-23T05:27:47;21.50;86.40
19261;DHT22;9764;48.114;11.670;2023-03-23T05:30:45;21.50;86.50
19261;DHT22;9764;48.114;11.670;2023-03-23T05:33:14;21.50;85.60
19261;DHT22;9764;48.114;11.670;2023-03-23T05:35:48;21.50;85.60
19261;DHT22;9764;48.114;11.670;2023-03-23T05:38:20;21.50;85.60
19261;DHT22;9764;48.114;11.670;2023-03-23T05:40:48;21.50;85.60
19261;DHT22;9764;48.114;11.670;2023-03-23T05:43:26;21.50;85.60
19261;DHT22;9764;48.114;11.670;2023-03-23T05:46:22;21.50;85.60
19261;DHT22;9764;48.114;11.670;2023-03-23T05:48:52;21.50;85.60
19261;DHT22;9764;48.114;11.670;2023-03-23T05:51:23;21.50;85.60
19261;DHT22;9764;48.114;11.670;2023-03-23T05:53:50;21.60;85.60
19261;DHT22;9764;48.114;11.670;2023-03-23T05:56:18;21.50;85.50
19261;DHT22;9764;48.114;11.670;2023-03-23T05:59:15;21.50;86.40
19261;DHT22;9764;48.114;11.670;2023-03-23T06:01:45;21.50;85.50
19261;DHT22;9764;48.114;11.670;2023-03-23T06:04:12;21.50;85.50
19261;DHT22;9764;48.114;11.670;2023-03-23T06:06:48;21.60;85.60
19261;DHT22;9764;48.114;11.670;2023-03-23T06:09:15;21.60;85.50
19261;DHT22;9764;48.114;11.670;2023-03-23T06:12:11;21.60;85.60
19261;DHT22;9764;48.114;11.670;2023-03-23T06:14:59;21.60;85.60
19261;DHT22;9764;48.114;11.670;2023-03-23T06:17:46;21.60;85.50
19261;DHT22;9764;48.114;11.670;2023-03-23T06:20:14;21.60;85.50
19261;DHT22;9764;48.114;11.670;2023-03-23T06:22:41;21.60;85.50
19261;DHT22;9764;48.114;11.670;2023-03-23T06:25:12;21.60;85.50
19261;DHT22;9764;48.114;11.670;2023-03-23T06:27:43;21.60;85.50
19261;DHT22;9764;48.114;11.670;2023-03-23T06:30:14;21.60;85.40
19261;DHT22;9764;48.114;11.670;2023-03-23T06:32:42;21.60;85.40
19261;DHT22;9764;48.114;11.670;2023-03-23T06:35:12;21.60;85.40
19261;DHT22;9764;48.114;11.670;2023-03-23T06:38:18;21.60;85.30
19261;DHT22;9764;48.114;11.670;2023-03-23T06:40:51;21.60;85.30
19261;DHT22;9764;48.114;11.670;2023-03-23T06:43:19;21.70;85.40
19261;DHT22;9764;48.114;11.670;2023-03-23T06:45:58;21.70;85.30
19261;DHT22;9764;48.114;11.670;2023-03-23T06:48:40;21.70;85.30
19261;DHT22;9764;48.114;11.670;2023-03-23T06:51:11;21.70;85.30
19261;DHT22;9764;48.114;11.670;2023-03-23T06:53:46;21.70;86.00
19261;DHT22;9764;48.114;11.670;2023-03-23T06:56:13;21.70;85.30
19261;DHT22;9764;48.114;11.670;2023-03-23T06:58:42;21.70;85.20
19261;DHT22;9764;48.114;11.670;2023-03-23T07:01:12;21.70;85.20
19261;DHT22;9764;48.114;11.670;2023-03-23T07:03:49;21.70;85.10
19261;DHT22;9764;48.114;11.670;2023-03-23T07:06:24;21.70;85.10
19261;DHT22;9764;48.114;11.670;2023-03-23T07:08:58;21.70;85.20
19261;DHT22;9764;48.114;11.670;2023-03-23T07:11:27;21.70;85.10
19261;DHT22;9764;48.114;11.670;2023-03-23T07:13:58;21.80;85.20
19261;DHT22;9764;48.114;11.670;2023-03-23T07:16:27;21.80;85.20
19261;DHT22;9764;48.114;11.670;2023-03-23T07:18:54;21.70;85.10
19261;DHT22;9764;48.114;11.670;2023-03-23T07:21:22;21.80;85.20
19261;DHT22;9764;48.114;11.670;2023-03-23T07:23:49;21.80;85.20
19261;DHT22;9764;48.114;11.670;2023-03-23T07:26:25;21.80;85.10
19261;DHT22;9764;48.114;11.670;2023-03-23T07:28:55;21.80;85.10
19261;DHT22;9764;48.114;11.670;2023-03-23T07:31:32;21.80;85.20
19261;DHT22;9764;48.114;11.670;2023-03-23T07:34:00;21.80;85.20
19261;DHT22;9764;48.114;11.670;2023-03-23T07:36:37;21.80;85.20
19261;DHT22;9764;48.114;11.670;2023-03-23T07:39:07;21.80;85.20
19261;DHT22;9764;48.114;11.670;2023-03-23T07:41:34;21.80;85.20
19261;DHT22;9764;48.114;11.670;2023-03-23T07:44:14;21.80;85.20
19261;DHT22;9764;48.114;11.670;2023-03-23T07:46:44;21.80;85.20
19261;DHT22;9764;48.114;11.670;2023-03-23T07:49:20;21.80;85.20
19261;DHT22;9764;48.114;11.670;2023-03-23T07:51:59;21.80;85.30
19261;DHT22;9764;48.114;11.670;2023-03-23T07:54:29;21.80;85.20
19261;DHT22;9764;48.114;11.670;2023-03-23T07:57:17;21.80;85.20
19261;DHT22;9764;48.114;11.670;2023-03-23T07:59:50;21.80;85.20
19261;DHT22;9764;48.114;11.670;2023-03-23T08:02:19;21.80;85.10
19261;DHT22;9764;48.114;11.670;2023-03-23T08:04:55;21.80;85.10
19261;DHT22;9764;48.114;11.670;2023-03-23T08:07:41;21.80;85.00
19261;DHT22;9764;48.114;11.670;2023-03-23T08:10:32;21.90;85.00
19261;DHT22;9764;48.114;11.670;2023-03-23T08:13:19;21.90;84.90
19261;DHT22;9764;48.114;11.670;2023-03-23T08:16:10;21.90;85.00
19261;DHT22;9764;48.114;11.670;2023-03-23T08:18:53;21.90;84.80
19261;DHT22;9764;48.114;11.670;2023-03-23T08:21:35;22.00;85.70
19261;DHT22;9764;48.114;11.670;2023-03-23T08:24:03;22.00;84.80
19261;DHT22;9764;48.114;11.670;2023-03-23T08:26:57;22.00;84.80
19261;DHT22;9764;48.114;11.670;2023-03-23T08:29:25;22.00;84.80
19261;DHT22;9764;48.114;11.670;2023-03-23T08:32:09;22.00;84.70
19261;DHT22;9764;48.114;11.670;2023-03-23T08:34:56;22.00;84.70
19261;DHT22;9764;48.114;11.670;2023-03-23T08:37:39;22.10;84.60
19261;DHT22;9764;48.114;11.670;2023-03-23T08:40:23;22.10;84.50
19261;DHT22;9764;48.114;11.670;2023-03-23T08:43:27;22.20;84.50
19261;DHT22;9764;48.114;11.670;2023-03-23T08:46:20;22.20;84.50
19261;DHT22;9764;48.114;11.670;2023-03-23T08:49:08;22.20;84.50
19261;DHT22;9764;48.114;11.670;2023-03-23T08:52:07;22.10;84.50
19261;DHT22;9764;48.114;11.670;2023-03-23T08:54:54;22.10;84.50
19261;DHT22;9764;48.114;11.670;2023-03-23T08:57:42;22.10;84.70
19261;DHT22;9764;48.114;11.670;2023-03-23T09:00:23;22.10;84.60
19261;DHT22;9764;48.114;11.670;2023-03-23T09:03:03;22.10;84.50
19261;DHT22;9764;48.114;11.670;2023-03-23T09:05:47;22.20;85.40
19261;DHT22;9764;48.114;11.670;2023-03-23T09:08:27;22.20;84.60
19261;DHT22;9764;48.114;11.670;2023-03-23T09:10:57;22.20;84.60
19261;DHT22;9764;48.114;11.670;2023-03-23T09:13:25;22.10;84.50
19261;DHT22;9764;48.114;11.670;2023-03-23T09:15:54;22.20;84.50
19261;DHT22;9764;48.114;11.670;2023-03-23T09:18:21;22.20;84.50
19261;DHT22;9764;48.114;11.670;2023-03-23T09:20:50;22.20;84.50
19261;DHT22;9764;48.114;11.670;2023-03-23T09:23:17;22.20;84.50
19261;DHT22;9764;48.114;11.670;2023-03-23T09:25:46;22.20;84.40
19261;DHT22;9764;48.114;11.670;2023-03-23T09:28:14;22.20;84.30
19261;DHT22;9764;48.114;11.670;2023-03-23T09:30:41;22.20;84.30
19261;DHT22;9764;48.114;11.670;2023-03-23T09:33:09;22.20;84.40
19261;DHT22;9764;48.114;11.670;2023-03-23T09:35:37;22.30;84.30
19261;DHT22;9764;48.114;11.670;2023-03-23T09:38:08;22.30;84.20
19261;DHT22;9764;48.114;11.670;2023-03-23T09:40:45;22.30;84.20
19261;DHT22;9764;48.114;11.670;2023-03-23T09:43:32;22.30;84.20
19261;DHT22;9764;48.114;11.670;2023-03-23T09:46:13;22.30;84.20
19261;DHT22;9764;48.114;11.670;2023-03-23T09:48:49;22.30;84.20
19261;DHT22;9764;48.114;11.670;2023-03-23T09:51:27;22.30;84.20
19261;DHT22;9764;48.114;11.670;2023-03-23T09:54:01;22.30;84.20
19261;DHT22;9764;48.114;11.670;2023-03-23T09:56:31;22.30;84.30
19261;DHT22;9764;48.114;11.670;2023-03-23T09:59:05;22.30;84.30
19261;DHT22;9764;48.114;11.670;2023-03-23T10:01:38;22.30;84.20
19261;DHT22;9764;48.114;11.670;2023-03-23T10:04:10;22.40;84.10
19261;DHT22;9764;48.114;11.670;2023-03-23T10:06:41;22.40;84.00
19261;DHT22;9764;48.114;11.670;2023-03-23T10:09:15;22.40;84.00
19261;DHT22;9764;48.114;11.670;2023-03-23T10:11:49;22.40;84.00
19261;DHT22;9764;48.114;11.670;2023-03-23T10:14:28;22.50;83.90
19261;DHT22;9764;48.114;11.670;2023-03-23T10:17:04;22.40;83.80
19261;DHT22;9764;48.114;11.670;2023-03-23T10:19:36;22.50;83.90
19261;DHT22;9764;48.114;11.670;2023-03-23T10:22:11;22.50;83.90
19261;DHT22;9764;48.114;11.670;2023-03-23T10:24:43;22.50;83.90
19261;DHT22;9764;48.114;11.670;2023-03-23T10:27:19;22.50;83.90
19261;DHT22;9764;48.114;11.670;2023-03-23T10:29:52;22.50;83.80
19261;DHT22;9764;48.114;11.670;2023-03-23T10:32:39;22.60;83.80
19261;DHT22;9764;48.114;11.670;2023-03-23T10:35:12;22.60;83.80
19261;DHT22;9764;48.114;11.670;2023-03-23T10:37:45;22.60;83.80
19261;DHT22;9764;48.114;11.670;2023-03-23T10:40:16;22.60;83.80
19261;DHT22;9764;48.114;11.670;2023-03-23T10:42:45;22.60;83.80
19261;DHT22;9764;48.114;11.670;2023-03-23T10:45:20;22.60;83.80
19261;DHT22;9764;48.114;11.670;2023-03-23T10:47:52;22.60;83.80
19261;DHT22;9764;48.114;11.670;2023-03-23T10:50:24;22.60;83.80
19261;DHT22;9764;48.114;11.670;2023-03-23T10:52:52;22.60;83.80
19261;DHT22;9764;48.114;11.670;2023-03-23T10:55:22;22.60;83.80
19261;DHT22;9764;48.114;11.670;2023-03-23T10:58:00;22.60;83.80
19261;DHT22;9764;48.114;11.670;2023-03-23T11:00:30;22.60;83.80
19261;DHT22;9764;48.114;11.670;2023-03-23T11:03:00;22.70;83.80
19261;DHT22;9764;48.114;11.670;2023-03-23T11:05:35;22.70;83.80
19261;DHT22;9764;48.114;11.670;2023-03-23T11:08:10;22.70;83.70
19261;DHT22;9764;48.114;11.670;2023-03-23T11:10:47;22.70;83.70
19261;DHT22;9764;48.114;11.670;2023-03-23T11:13:17;22.70;83.60
19261;DHT22;9764;48.114;11.670;2023-03-23T11:15:47;22.70;83.60
19261;DHT22;9764;48.114;11.670;2023-03-23T11:18:20;22.70;83.50
19261;DHT22;9764;48.114;11.670;2023-03-23T11:20:50;22.80;83.70
19261;DHT22;9764;48.114;11.670;2023-03-23T11:23:21;22.80;83.70
19261;DHT22;9764;48.114;11.670;2023-03-23T11:26:03;22.80;83.60
19261;DHT22;9764;48.114;11.670;2023-03-23T11:28:36;22.80;83.70
19261;DHT22;9764;48.114;11.670;2023-03-23T11:31:06;22.80;83.70
19261;DHT22;9764;48.114;11.670;2023-03-23T11:33:46;22.80;83.70
19261;DHT22;9764;48.114;11.670;2023-03-23T11:36:14;22.80;83.60
19261;DHT22;9764;48.114;11.670;2023-03-23T11:38:43;22.80;83.60
19261;DHT22;9764;48.114;11.670;2023-03-23T11:41:11;22.80;83.60
19261;DHT22;9764;48.114;11.670;2023-03-23T11:43:40;22.80;83.50
19261;DHT22;9764;48.114;11.670;2023-03-23T11:46:18;22.80;83.50
19261;DHT22;9764;48.114;11.670;2023-03-23T11:48:53;22.80;83.50
19261;DHT22;9764;48.114;11.670;2023-03-23T11:51:27;22.90;84.40
19261;DHT22;9764;48.114;11.670;2023-03-23T11:54:00;22.90;83.50
19261;DHT22;9764;48.114;11.670;2023-03-23T11:56:31;22.90;83.50
19261;DHT22;9764;48.114;11.670;2023-03-23T11:59:00;22.90;83.50
19261;DHT22;9764;48.114;11.670;2023-03-23T12:01:41;22.90;83.50
19261;DHT22;9764;48.114;11.670;2023-03-23T12:10:25;22.90;83.40
19261;DHT22;9764;48.114;11.670;2023-03-23T12:13:05;23.00;83.50
19261;DHT22;9764;48.114;11.670;2023-03-23T12:15:42;23.00;83.50
19261;DHT22;9764;48.114;11.670;2023-03-23T12:18:20;23.00;83.50
19261;DHT22;9764;48.114;11.670;2023-03-23T12:21:01;23.00;83.40
19261;DHT22;9764;48.114;11.670;2023-03-23T12:23:38;23.00;83.30
19261;DHT22;9764;48.114;11.670;2023-03-23T12:26:25;23.00;83.40
19261;DHT22;9764;48.114;11.670;2023-03-23T12:29:23;23.00;83.40
19261;DHT22;9764;48.114;11.670;2023-03-23T12:32:06;23.00;83.40
19261;DHT22;9764;48.114;11.670;2023-03-23T12:34:41;23.00;83.40
19261;DHT22;9764;48.114;11.670;2023-03-23T12:37:30;23.00;83.50
19261;DHT22;9764;48.114;11.670;2023-03-23T12:40:19;23.00;83.50
19261;DHT22;9764;48.114;11.670;2023-03-23T12:42:54;23.00;83.60
19261;DHT22;9764;48.114;11.670;2023-03-23T12:45:37;23.00;83.60
19261;DHT22;9764;48.114;11.670;2023-03-23T12:48:11;22.90;83.50
19261;DHT22;9764;48.114;11.670;2023-03-23T12:50:44;22.90;83.60
19261;DHT22;9764;48.114;11.670;2023-03-23T12:53:18;22.90;83.60
19261;DHT22;9764;48.114;11.670;2023-03-23T12:55:50;22.90;83.50
19261;DHT22;9764;48.114;11.670;2023-03-23T12:58:21;22.90;83.60
19261;DHT22;9764;48.114;11.670;2023-03-23T13:00:55;22.90;83.60
19261;DHT22;9764;48.114;11.670;2023-03-23T13:03:28;22.90;83.60
19261;DHT22;9764;48.114;11.670;2023-03-23T13:06:04;22.90;83.60
19261;DHT22;9764;48.114;11.670;2023-03-23T13:08:36;22.90;83.50
19261;DHT22;9764;48.114;11.670;2023-03-23T13:11:10;23.00;83.60
19261;DHT22;9764;48.114;11.670;2023-03-23T13:13:45;23.00;83.60
19261;DHT22;9764;48.114;11.670;2023-03-23T13:16:24;23.00;83.60
19261;DHT22;9764;48.114;11.670;2023-03-23T13:19:02;23.00;83.60
19261;DHT22;9764;48.114;11.670;2023-03-23T13:21:37;23.00;83.60
19261;DHT22;9764;48.114;11.670;2023-03-23T13:24:08;23.00;83.60
19261;DHT22;9764;48.114;11.670;2023-03-23T13:26:38;23.00;83.60
19261;DHT22;9764;48.114;11.670;2023-03-23T13:29:09;23.00;83.50
19261;DHT22;9764;48.114;11.670;2023-03-23T13:31:41;23.00;83.50
19261;DHT22;9764;48.114;11.670;2023-03-23T13:34:16;23.00;83.50
19261;DHT22;9764;48.114;11.670;2023-03-23T13:36:53;23.00;83.50
19261;DHT22;9764;48.114;11.670;2023-03-23T13:39:23;23.00;83.50
19261;DHT22;9764;48.114;11.670;2023-03-23T13:42:04;23.00;83.60
19261;DHT22;9764;48.114;11.670;2023-03-23T13:44:44;23.00;83.70
19261;DHT22;9764;48.114;11.670;2023-03-23T13:47:27;23.00;83.60
19261;DHT22;9764;48.114;11.670;2023-03-23T13:49:58;23.00;83.60
19261;DHT22;9764;48.114;11.670;2023-03-23T13:52:39;23.00;84.50
19261;DHT22;9764;48.114;11.670;2023-03-23T13:55:29;23.00;83.70
19261;DHT22;9764;48.114;11.670;2023-03-23T13:57:58;23.00;83.70
19261;DHT22;9764;48.114;11.670;2023-03-23T14:00:44;23.00;83.70
19261;DHT22;9764;48.114;11.670;2023-03-23T14:03:15;23.00;83.70
19261;DHT22;9764;48.114;11.670;2023-03-23T14:05:44;22.90;83.70
19261;DHT22;9764;48.114;11.670;2023-03-23T14:08:23;22.90;83.70
19261;DHT22;9764;48.114;11.670;2023-03-23T14:10:53;22.90;83.80
19261;DHT22;9764;48.114;11.670;2023-03-23T14:13:30;22.90;83.70
19261;DHT22;9764;48.114;11.670;2023-03-23T14:16:00;22.90;83.80
19261;DHT22;9764;48.114;11.670;2023-03-23T14:18:35;22.90;83.90
19261;DHT22;9764;48.114;11.670;2023-03-23T14:21:04;22.90;83.90
19261;DHT22;9764;48.114;11.670;2023-03-23T14:23:33;22.90;83.90
19261;DHT22;9764;48.114;11.670;2023-03-23T14:26:02;22.90;83.90
19261;DHT22;9764;48.114;11.670;2023-03-23T14:28:37;22.80;83.90
19261;DHT22;9764;48.114;11.670;2023-03-23T14:31:14;22.90;83.90
19261;DHT22;9764;48.114;11.670;2023-03-23T14:33:42;22.80;83.90
19261;DHT22;9764;48.114;11.670;2023-03-23T14:36:10;22.90;83.90
19261;DHT22;9764;48.114;11.670;2023-03-23T14:38:39;22.80;83.90
19261;DHT22;9764;48.114;11.670;2023-03-23T14:41:06;22.90;84.00
19261;DHT22;9764;48.114;11.670;2023-03-23T14:43:35;22.80;83.90
19261;DHT22;9764;48.114;11.670;2023-03-23T14:46:06;22.90;84.00
19261;DHT22;9764;48.114;11.670;2023-03-23T14:48:34;22.80;84.00
19261;DHT22;9764;48.114;11.670;2023-03-23T14:51:04;22.80;84.00
19261;DHT22;9764;48.114;11.670;2023-03-23T14:53:35;22.80;83.90
19261;DHT22;9764;48.114;11.670;2023-03-23T14:56:10;22.80;84.00
19261;DHT22;9764;48.114;11.670;2023-03-23T14:58:38;22.80;84.00
19261;DHT22;9764;48.114;11.670;2023-03-23T15:01:10;22.80;84.00
19261;DHT22;9764;48.114;11.670;2023-03-23T15:03:42;22.80;84.00
19261;DHT22;9764;48.114;11.670;2023-03-23T15:06:15;22.80;84.10
19261;DHT22;9764;48.114;11.670;2023-03-23T15:08:44;22.80;84.10
19261;DHT22;9764;48.114;11.670;2023-03-23T15:11:27;22.80;84.10
19261;DHT22;9764;48.114;11.670;2023-03-23T15:13:57;22.80;84.10
19261;DHT22;9764;48.114;11.670;2023-03-23T15:16:27;22.80;84.10
19261;DHT22;9764;48.114;11.670;2023-03-23T15:18:56;22.80;84.10
19261;DHT22;9764;48.114;11.670;2023-03-23T15:21:26;22.80;84.10
19261;DHT22;9764;48.114;11.670;2023-03-23T15:23:54;22.80;84.10
19261;DHT22;9764;48.114;11.670;2023-03-23T15:26:30;22.80;84.10
19261;DHT22;9764;48.114;11.670;2023-03-23T15:29:11;22.80;84.10
19261;DHT22;9764;48.114;11.670;2023-03-23T15:31:40;22.80;84.10
19261;DHT22;9764;48.114;11.670;2023-03-23T15:34:17;22.80;84.20
19261;DHT22;9764;48.114;11.670;2023-03-23T15:36:46;22.80;84.10
19261;DHT22;9764;48.114;11.670;2023-03-23T15:39:17;22.80;84.20
19261;DHT22;9764;48.114;11.670;2023-03-23T15:41:50;22.80;84.20
19261;DHT22;9764;48.114;11.670;2023-03-23T15:44:25;22.80;84.20
19261;DHT22;9764;48.114;11.670;2023-03-23T15:46:53;22.80;84.20
19261;DHT22;9764;48.114;11.670;2023-03-23T15:49:27;22.80;84.20
19261;DHT22;9764;48.114;11.670;2023-03-23T15:51:55;22.80;84.20
19261;DHT22;9764;48.114;11.670;2023-03-23T15:54:22;22.80;84.30
19261;DHT22;9764;48.114;11.670;2023-03-23T15:56:51;22.80;84.20
19261;DHT22;9764;48.114;11.670;2023-03-23T15:59:18;22.70;84.20
19261;DHT22;9764;48.114;11.670;2023-03-23T16:01:47;22.70;84.30
19261;DHT22;9764;48.114;11.670;2023-03-23T16:04:17;22.70;84.30
19261;DHT22;9764;48.114;11.670;2023-03-23T16:06:47;22.70;84.30
19261;DHT22;9764;48.114;11.670;2023-03-23T16:09:17;22.70;84.30
19261;DHT22;9764;48.114;11.670;2023-03-23T16:11:46;22.70;84.30
19261;DHT22;9764;48.114;11.670;2023-03-23T16:14:16;22.70;84.30
19261;DHT22;9764;48.114;11.670;2023-03-23T16:16:46;22.70;84.30
19261;DHT22;9764;48.114;11.670;2023-03-23T16:19:17;22.70;84.30
19261;DHT22;9764;48.114;11.670;2023-03-23T16:21:46;22.70;84.30
19261;DHT22;9764;48.114;11.670;2023-03-23T16:24:15;22.70;84.30
19261;DHT22;9764;48.114;11.670;2023-03-23T16:26:43;22.70;84.30
19261;DHT22;9764;48.114;11.670;2023-03-23T16:29:14;22.70;84.30